Time;durP1;ratioP1;P1;durP2;ratioP2;P2;SDS_P1;SDS_P2;PMS_P1;PMS_P2;Temp;Humidity;BMP_temperature;BMP_pressure;BME280_temperature;BME280_humidity;BME280_pressure;Samples;Min_cycle;Max_cycle;Signal;HPM_P1;HPM_P2
2022/07/11 00:02:11;;;;;;;4.78;2.00;;;;;;;17.86;74.63;102091.31;5059960;28;20036;-72
2022/07/11 00:04:37;;;;;;;6.95;2.50;;;;;;;17.86;74.97;102092.13;5042650;28;20024;-73
2022/07/11 00:07:03;;;;;;;7.30;2.30;;;;;;;17.85;74.83;102092.31;5061515;28;20032;-73
2022/07/11 00:09:30;;;;;;;11.48;2.20;;;;;;;17.82;74.78;102085.56;5061372;28;20043;-73
2022/07/11 00:11:56;;;;;;;6.32;2.67;;;;;;;17.88;74.84;102089.34;5040908;28;20033;-73
2022/07/11 00:14:22;;;;;;;4.18;2.40;;;;;;;17.83;75.19;102087.19;5043154;28;20384;-72
2022/07/11 00:16:49;;;;;;;7.45;2.85;;;;;;;17.85;75.32;102087.88;5056881;28;20145;-73
2022/07/11 00:19:15;;;;;;;5.63;2.47;;;;;;;17.80;75.29;102084.09;5061324;28;20037;-73
2022/07/11 00:21:40;;;;;;;3.85;2.17;;;;;;;17.77;75.34;102080.03;5027604;28;20045;-73
2022/07/11 00:24:07;;;;;;;4.75;2.88;;;;;;;17.76;75.42;102080.19;5048646;28;20037;-73
2022/07/11 00:26:36;;;;;;;8.35;2.80;;;;;;;17.76;75.54;102085.44;5030599;28;20029;-73
2022/07/11 00:29:03;;;;;;;6.28;2.67;;;;;;;17.77;75.63;102085.25;5057615;28;20037;-73
2022/07/11 00:31:28;;;;;;;8.75;2.78;;;;;;;17.79;75.65;102085.91;5028309;28;20041;-73
2022/07/11 00:33:54;;;;;;;4.50;2.28;;;;;;;17.77;75.94;102079.22;5045904;28;20039;-73
2022/07/11 00:36:20;;;;;;;5.40;2.20;;;;;;;17.77;76.19;102085.25;5040648;28;20032;-73
2022/07/11 00:38:46;;;;;;;5.10;2.10;;;;;;;17.75;76.28;102081.19;5061994;28;20039;-73
2022/07/11 00:41:12;;;;;;;5.45;1.90;;;;;;;17.70;76.39;102086.94;5061786;28;20442;-73
2022/07/11 00:43:39;;;;;;;7.43;2.25;;;;;;;17.67;76.66;102084.69;5029244;28;20452;-73
2022/07/11 00:46:06;;;;;;;6.75;2.45;;;;;;;17.66;76.33;102081.22;5045633;28;20100;-73
2022/07/11 00:48:31;;;;;;;7.18;2.28;;;;;;;17.61;76.34;102083.56;5040541;28;20124;-73
2022/07/11 00:50:58;;;;;;;6.78;2.45;;;;;;;17.54;76.80;102085.22;5041274;28;20115;-73
2022/07/11 00:53:24;;;;;;;9.80;2.95;;;;;;;17.48;77.10;102078.06;5040986;28;20052;-73
2022/07/11 00:55:52;;;;;;;6.45;2.97;;;;;;;17.42;77.35;102076.94;5040502;28;20032;-73
2022/07/11 00:58:18;;;;;;;4.93;2.78;;;;;;;17.42;77.41;102076.94;5062923;28;20090;-73
2022/07/11 01:00:44;;;;;;;8.93;2.50;;;;;;;17.37;77.63;102073.19;5051175;28;20029;-73
2022/07/11 01:03:10;;;;;;;5.72;2.33;;;;;;;17.33;77.76;102075.31;5037771;28;20051;-72
2022/07/11 01:05:35;;;;;;;5.18;2.67;;;;;;;17.30;77.77;102068.59;5041421;28;20044;-73
2022/07/11 01:08:01;;;;;;;13.90;3.17;;;;;;;17.28;77.90;102067.13;5055367;28;20063;-73
2022/07/11 01:10:27;;;;;;;4.85;2.58;;;;;;;17.26;77.86;102067.31;5043631;28;20044;-73
2022/07/11 01:12:52;;;;;;;3.63;2.38;;;;;;;17.24;78.20;102064.03;5056394;28;20174;-73
2022/07/11 01:15:17;;;;;;;10.13;2.95;;;;;;;17.23;78.14;102062.38;5061075;28;20036;-73
2022/07/11 01:17:43;;;;;;;5.50;2.65;;;;;;;17.22;77.87;102059.97;5055925;28;20169;-72
2022/07/11 01:20:09;;;;;;;5.70;2.00;;;;;;;17.20;78.10;102065.38;5060194;28;20033;-73
2022/07/11 01:22:39;;;;;;;3.40;2.10;;;;;;;17.18;77.99;102059.47;5060324;28;20112;-73
2022/07/11 01:25:06;;;;;;;4.82;2.10;;;;;;;17.20;77.72;102059.31;5061250;28;20039;-73
2022/07/11 01:27:33;;;;;;;6.18;2.70;;;;;;;17.20;77.49;102059.31;5059104;28;20028;-73
2022/07/11 01:29:59;;;;;;;5.82;2.20;;;;;;;17.19;77.58;102065.53;5028904;28;20045;-73
2022/07/11 01:32:24;;;;;;;6.47;2.30;;;;;;;17.16;77.80;102069.31;5060713;28;20041;-74
2022/07/11 01:34:50;;;;;;;7.07;2.17;;;;;;;17.05;78.40;102061.81;5057413;28;20036;-73
2022/07/11 01:37:15;;;;;;;6.28;2.08;;;;;;;17.02;78.55;102070.81;5056709;28;20931;-73
2022/07/11 01:39:41;;;;;;;10.43;2.33;;;;;;;16.99;78.56;102070.31;5061032;28;20401;-73
2022/07/11 01:42:06;;;;;;;4.45;1.95;;;;;;;16.88;79.01;102059.22;5058719;28;20032;-73
2022/07/11 01:44:32;;;;;;;4.50;1.90;;;;;;;16.83;79.36;102058.91;5054437;28;20102;-73
2022/07/11 01:46:57;;;;;;;7.35;2.38;;;;;;;16.81;79.27;102057.41;5054658;28;20035;-73
2022/07/11 01:49:22;;;;;;;5.43;2.00;;;;;;;16.80;79.47;102061.84;5057861;28;20039;-73
2022/07/11 01:51:49;;;;;;;7.95;2.50;;;;;;;16.79;79.48;102060.19;5041749;28;20479;-73
2022/07/11 01:54:15;;;;;;;4.75;2.25;;;;;;;16.80;79.22;102066.25;5058300;28;20033;-73
2022/07/11 01:56:40;;;;;;;5.88;2.08;;;;;;;16.79;79.28;102062.00;5059122;28;20147;-72
2022/07/11 01:59:06;;;;;;;5.78;2.28;;;;;;;16.75;79.61;102066.75;5023808;28;20561;-73
2022/07/11 02:01:32;;;;;;;6.60;2.75;;;;;;;16.73;79.88;102066.91;5042556;28;20055;-73
2022/07/11 02:04:00;;;;;;;6.18;2.72;;;;;;;16.71;79.73;102066.25;5023071;28;20028;-73
2022/07/11 02:06:25;;;;;;;7.57;2.65;;;;;;;16.70;79.65;102064.63;5056370;28;20550;-73
2022/07/11 02:08:51;;;;;;;12.15;2.75;;;;;;;16.68;79.68;102063.16;5026173;28;20024;-73
2022/07/11 02:11:16;;;;;;;5.03;2.40;;;;;;;16.65;79.77;102063.47;5056257;28;20040;-73
2022/07/11 02:13:42;;;;;;;7.43;2.25;;;;;;;16.62;79.96;102063.81;5056862;28;20047;-73
2022/07/11 02:16:07;;;;;;;4.80;2.67;;;;;;;16.59;79.98;102061.53;5057160;28;20474;-72
2022/07/11 02:18:34;;;;;;;4.35;2.60;;;;;;;16.57;80.21;102058.25;5041855;28;20443;-73
2022/07/11 02:21:00;;;;;;;6.38;2.60;;;;;;;16.53;80.43;102060.38;5056982;28;20036;-73
2022/07/11 02:23:25;;;;;;;4.93;2.55;;;;;;;16.49;80.61;102059.09;5025009;28;20105;-72
2022/07/11 02:25:51;;;;;;;8.75;3.05;;;;;;;16.43;81.06;102065.78;5038197;28;20036;-72
2022/07/11 02:28:17;;;;;;;4.55;2.40;;;;;;;16.40;81.29;102066.09;5055380;28;20040;-73
2022/07/11 02:30:43;;;;;;;6.70;2.30;;;;;;;16.35;81.80;102066.63;5059223;28;20116;-73
2022/07/11 02:33:15;;;;;;;5.15;2.92;;;;;;;16.36;81.42;102075.28;5056034;28;20047;-73
2022/07/11 02:35:42;;;;;;;5.40;3.13;;;;;;;16.33;81.83;102070.34;5037098;28;20044;-72
2022/07/11 02:38:08;;;;;;;6.32;2.97;;;;;;;16.26;82.86;102069.41;5036944;28;20063;-72
2022/07/11 02:40:33;;;;;;;5.25;3.30;;;;;;;16.17;83.67;102060.72;5058829;28;20033;-72
2022/07/11 02:42:58;;;;;;;5.60;3.35;;;;;;;16.11;84.54;102070.03;5023730;28;20114;-72
2022/07/11 02:45:24;;;;;;;5.60;3.33;;;;;;;16.09;85.04;102064.13;5058500;28;20036;-73
2022/07/11 02:47:50;;;;;;;7.63;3.38;;;;;;;16.07;85.37;102066.09;5053213;28;20028;-72
2022/07/11 02:50:15;;;;;;;8.50;3.85;;;;;;;16.05;85.53;102062.00;5053790;28;20028;-73
2022/07/11 02:52:42;;;;;;;8.80;3.65;;;;;;;16.04;86.08;102061.19;5039824;28;20548;-72
2022/07/11 02:55:09;;;;;;;7.35;2.78;;;;;;;16.06;86.04;102061.84;5056063;28;20033;-72
2022/07/11 02:57:36;;;;;;;8.45;3.47;;;;;;;16.05;86.09;102068.06;5035307;28;20052;-72
2022/07/11 03:00:04;;;;;;;7.90;3.60;;;;;;;16.05;86.47;102060.22;5038875;28;20086;-72
2022/07/11 03:02:30;;;;;;;8.88;3.63;;;;;;;16.06;86.16;102064.44;5053546;28;20059;-72
2022/07/11 03:04:56;;;;;;;6.32;3.08;;;;;;;16.04;86.42;102060.38;5041119;28;20028;-73
2022/07/11 03:07:22;;;;;;;11.38;3.95;;;;;;;16.04;86.49;102066.41;5038468;28;20051;-72
2022/07/11 03:09:47;;;;;;;7.65;4.20;;;;;;;16.03;86.60;102070.03;5055500;28;20056;-72
2022/07/11 03:12:13;;;;;;;8.25;3.40;;;;;;;16.06;86.81;102067.06;5058522;28;20032;-72
2022/07/11 03:14:38;;;;;;;8.50;3.85;;;;;;;16.05;86.87;102072.44;5021266;28;20045;-72
2022/07/11 03:17:04;;;;;;;9.20;3.63;;;;;;;16.06;87.19;102074.91;5038275;28;20048;-72
2022/07/11 03:19:29;;;;;;;7.85;3.85;;;;;;;16.09;87.35;102076.41;5037088;28;20035;-72
2022/07/11 03:21:55;;;;;;;6.65;3.67;;;;;;;16.09;87.54;102074.59;5040182;28;20032;-73
2022/07/11 03:24:20;;;;;;;7.32;3.85;;;;;;;16.11;87.73;102074.44;5055673;28;20041;-72
2022/07/11 03:26:46;;;;;;;8.70;3.40;;;;;;;16.11;87.65;102077.88;5039957;28;20032;-72
2022/07/11 03:29:11;;;;;;;7.78;2.90;;;;;;;16.11;87.78;102079.69;5042539;28;20049;-72
2022/07/11 03:31:37;;;;;;;10.32;3.72;;;;;;;16.12;87.91;102074.28;5065976;28;20044;-73
2022/07/11 03:34:02;;;;;;;6.75;3.65;;;;;;;16.11;88.08;102077.88;5028103;28;20055;-72
2022/07/11 03:36:28;;;;;;;10.25;3.95;;;;;;;16.14;87.89;102077.56;5049005;28;20048;-73
2022/07/11 03:38:53;;;;;;;7.60;3.28;;;;;;;16.17;87.81;102076.41;5060963;28;20039;-72
2022/07/11 03:41:18;;;;;;;7.47;3.28;;;;;;;16.18;87.67;102074.59;5066373;28;20033;-73
2022/07/11 03:43:44;;;;;;;8.07;3.40;;;;;;;16.20;87.97;102080.50;5063754;28;20102;-72
2022/07/11 03:46:09;;;;;;;7.28;2.92;;;;;;;16.21;87.99;102074.28;5044361;28;20040;-73
2022/07/11 03:48:35;;;;;;;8.40;3.83;;;;;;;16.23;87.89;102080.19;5045316;28;20405;-72
2022/07/11 03:51:00;;;;;;;6.38;3.20;;;;;;;16.22;88.01;102075.91;5062830;28;20037;-73
2022/07/11 03:53:26;;;;;;;6.10;3.35;;;;;;;16.24;88.02;102074.78;5047745;28;20051;-72
2022/07/11 03:55:52;;;;;;;5.32;3.08;;;;;;;16.27;87.94;102079.69;5059199;28;20519;-73
2022/07/11 03:58:17;;;;;;;7.72;3.55;;;;;;;16.29;87.80;102079.53;5063593;28;20116;-72
2022/07/11 04:00:43;;;;;;;6.18;3.55;;;;;;;16.31;87.84;102075.78;5048684;28;20063;-72
2022/07/11 04:03:08;;;;;;;8.40;3.88;;;;;;;16.35;87.78;102074.47;5044054;28;20037;-72
2022/07/11 04:05:34;;;;;;;7.80;4.10;;;;;;;16.35;87.68;102077.09;5062425;28;20032;-73
2022/07/11 04:07:59;;;;;;;6.18;3.35;;;;;;;16.37;87.75;102076.94;5063310;28;20085;-72
2022/07/11 04:10:25;;;;;;;7.18;2.88;;;;;;;16.37;87.78;102081.31;5044509;28;20032;-72
2022/07/11 04:12:50;;;;;;;5.25;3.35;;;;;;;16.38;87.79;102089.00;5061380;28;20091;-72
2022/07/11 04:15:16;;;;;;;6.70;3.00;;;;;;;16.40;87.79;102081.81;5064834;28;20040;-72
2022/07/11 04:17:41;;;;;;;7.93;3.47;;;;;;;16.41;87.80;102080.03;5049303;28;20474;-73
2022/07/11 04:20:07;;;;;;;6.72;3.13;;;;;;;16.42;87.90;102082.47;5062340;28;20714;-73
2022/07/11 04:22:33;;;;;;;8.23;3.35;;;;;;;16.46;88.03;102082.97;5047394;28;20044;-72
2022/07/11 04:24:58;;;;;;;11.18;4.03;;;;;;;16.45;88.07;102084.78;5025147;28;20029;-72
2022/07/11 04:27:26;;;;;;;7.57;3.03;;;;;;;16.49;87.88;102090.50;5062250;28;20431;-72
2022/07/11 04:29:52;;;;;;;4.45;2.88;;;;;;;16.51;87.74;102085.91;5061607;28;20483;-73
2022/07/11 04:32:18;;;;;;;5.93;2.85;;;;;;;16.51;87.66;102081.50;5062856;28;20041;-73
2022/07/11 04:34:43;;;;;;;6.55;3.53;;;;;;;16.47;87.47;102080.19;5047731;28;20025;-72
2022/07/11 04:37:09;;;;;;;8.63;3.42;;;;;;;16.45;87.60;102087.38;5044560;28;20047;-73
2022/07/11 04:39:34;;;;;;;6.22;3.88;;;;;;;16.50;87.63;102089.50;5062640;28;20500;-73
2022/07/11 04:42:03;;;;;;;9.63;3.75;;;;;;;16.44;87.95;102088.34;5041201;28;20285;-73
2022/07/11 04:44:28;;;;;;;5.57;2.92;;;;;;;16.47;87.88;102089.84;5061381;28;20048;-73
2022/07/11 04:46:54;;;;;;;8.52;3.75;;;;;;;16.49;87.92;102083.47;5056795;28;20036;-73
2022/07/11 04:49:19;;;;;;;8.27;4.18;;;;;;;16.50;87.53;102089.50;5060114;28;20116;-72
2022/07/11 04:51:45;;;;;;;8.32;4.00;;;;;;;16.49;87.61;102093.94;5058460;28;20036;-73
2022/07/11 04:54:11;;;;;;;11.05;3.78;;;;;;;16.51;88.05;102096.38;5044039;28;20041;-73
2022/07/11 04:56:37;;;;;;;10.23;3.75;;;;;;;16.53;88.17;102097.03;5060703;28;20032;-72
2022/07/11 04:59:03;;;;;;;8.30;3.60;;;;;;;16.53;88.25;102095.22;5039875;28;20048;-72
2022/07/11 05:01:29;;;;;;;6.57;3.30;;;;;;;16.57;88.40;102095.72;5044364;28;20132;-73
2022/07/11 05:03:55;;;;;;;7.55;3.47;;;;;;;16.56;88.39;102091.50;5027630;28;20111;-73
2022/07/11 05:06:21;;;;;;;14.27;4.65;;;;;;;16.54;88.30;102098.69;5056145;28;20823;-73
2022/07/11 05:08:46;;;;;;;8.45;3.85;;;;;;;16.50;88.43;102098.19;5041268;28;20036;-72
2022/07/11 05:11:12;;;;;;;8.43;3.35;;;;;;;16.50;88.52;102103.44;5056351;28;20060;-73
2022/07/11 05:13:37;;;;;;;9.75;3.40;;;;;;;16.51;88.48;102102.44;5028284;28;20063;-73
2022/07/11 05:16:03;;;;;;;8.85;3.78;;;;;;;16.59;88.19;102103.41;5055283;28;20033;-72
2022/07/11 05:18:28;;;;;;;11.38;4.20;;;;;;;16.63;88.53;102102.09;5043042;28;20676;-73
2022/07/11 05:20:54;;;;;;;7.22;4.15;;;;;;;16.71;88.07;102102.13;5057656;28;20032;-73
2022/07/11 05:23:20;;;;;;;10.18;3.13;;;;;;;16.77;87.79;102109.31;5059615;28;20104;-73
2022/07/11 05:25:45;;;;;;;7.47;3.60;;;;;;;16.82;87.60;102117.53;5060356;28;20090;-74
2022/07/11 05:28:10;;;;;;;6.30;3.13;;;;;;;16.76;87.14;102106.84;5053917;28;20051;-73
2022/07/11 05:30:36;;;;;;;9.23;3.00;;;;;;;16.75;87.13;102111.28;5043103;28;20043;-73
2022/07/11 05:33:01;;;;;;;10.43;3.03;;;;;;;16.71;87.12;102121.25;5057563;28;20029;-72
2022/07/11 05:35:27;;;;;;;7.88;2.90;;;;;;;16.72;87.17;102119.44;5040854;28;20040;-72
2022/07/11 05:37:52;;;;;;;8.45;3.65;;;;;;;16.77;87.12;102122.41;5058673;28;20035;-73
2022/07/11 05:40:18;;;;;;;5.13;2.33;;;;;;;16.70;87.34;102122.22;5058514;28;20024;-73
2022/07/11 05:42:43;;;;;;;5.57;2.65;;;;;;;16.78;87.13;102123.22;5059105;28;20032;-73
2022/07/11 05:45:09;;;;;;;5.43;2.50;;;;;;;16.80;87.30;102126.47;5056168;28;20033;-73
2022/07/11 05:47:35;;;;;;;5.35;1.92;;;;;;;16.83;87.27;102131.44;5056348;28;20037;-73
2022/07/11 05:50:00;;;;;;;5.90;2.10;;;;;;;16.85;87.17;102125.03;5041675;28;20047;-73
2022/07/11 05:52:26;;;;;;;7.15;2.50;;;;;;;16.85;86.79;102132.09;5041775;28;20504;-73
2022/07/11 05:54:51;;;;;;;2.95;1.98;;;;;;;16.87;86.59;102130.94;5040964;28;20058;-73
2022/07/11 05:57:17;;;;;;;2.55;2.00;;;;;;;16.87;86.67;102128.31;5056679;28;20624;-73
2022/07/11 05:59:42;;;;;;;4.07;1.90;;;;;;;16.90;86.69;102128.00;5056030;28;20115;-73
2022/07/11 06:02:08;;;;;;;5.57;2.05;;;;;;;16.92;86.55;102122.59;5058716;28;20032;-73
2022/07/11 06:04:34;;;;;;;2.65;2.03;;;;;;;16.91;86.62;102124.41;5041371;28;20493;-73
2022/07/11 06:07:00;;;;;;;5.75;2.17;;;;;;;16.90;86.45;102133.22;5056789;28;20039;-73
2022/07/11 06:09:25;;;;;;;3.50;2.10;;;;;;;16.96;85.81;102133.56;5040657;28;20044;-72
2022/07/11 06:11:51;;;;;;;3.45;1.90;;;;;;;17.01;85.96;102131.22;5027025;28;20578;-73
2022/07/11 06:14:17;;;;;;;4.38;1.98;;;;;;;16.92;86.18;102133.06;5039994;28;20044;-73
2022/07/11 06:16:43;;;;;;;3.50;1.58;;;;;;;16.95;86.23;102140.56;5058274;28;20110;-73
2022/07/11 06:19:08;;;;;;;3.92;1.85;;;;;;;17.05;85.41;102135.19;5057706;28;20473;-73
2022/07/11 06:21:34;;;;;;;5.38;1.58;;;;;;;16.93;85.61;102147.78;5056627;28;20033;-73
2022/07/11 06:23:59;;;;;;;4.65;1.70;;;;;;;17.05;85.82;102140.41;5057785;28;20043;-73
2022/07/11 06:26:25;;;;;;;3.75;1.67;;;;;;;17.10;86.29;102140.72;5061177;28;20028;-73
2022/07/11 06:28:50;;;;;;;4.10;1.88;;;;;;;17.03;86.23;102148.44;5038324;28;20072;-74
2022/07/11 06:31:16;;;;;;;3.60;1.33;;;;;;;17.04;86.56;102139.59;5061434;28;20069;-73
2022/07/11 06:33:42;;;;;;;5.78;1.67;;;;;;;17.11;86.37;102137.13;5040365;28;20113;-73
2022/07/11 06:36:07;;;;;;;6.13;1.70;;;;;;;17.21;86.45;102132.50;5055175;28;20036;-73
2022/07/11 06:38:33;;;;;;;5.13;1.63;;;;;;;17.19;86.46;102131.84;5060215;28;20024;-73
2022/07/11 06:40:59;;;;;;;6.30;1.83;;;;;;;17.16;85.75;102137.44;5057787;28;20064;-73
2022/07/11 06:43:24;;;;;;;6.68;2.72;;;;;;;17.09;86.38;102139.91;5040038;28;20051;-72
2022/07/11 06:45:50;;;;;;;16.02;4.35;;;;;;;17.10;86.30;102138.94;5057767;28;20036;-73
2022/07/11 06:48:16;;;;;;;4.38;2.03;;;;;;;17.14;86.41;102136.81;5040537;28;20039;-74
2022/07/11 06:50:42;;;;;;;6.47;2.15;;;;;;;17.07;86.76;102138.44;5040407;28;20041;-73
2022/07/11 06:53:08;;;;;;;4.43;2.15;;;;;;;17.01;86.92;102137.31;5058841;28;20639;-73
2022/07/11 06:55:34;;;;;;;4.90;1.98;;;;;;;17.03;87.02;102139.78;5062517;28;20136;-73
2022/07/11 06:58:00;;;;;;;8.82;3.50;;;;;;;17.07;86.79;102143.69;5025633;28;20044;-72
2022/07/11 07:00:27;;;;;;;6.63;2.25;;;;;;;17.08;87.21;102151.41;5060280;28;20021;-73
2022/07/11 07:02:56;;;;;;;3.38;1.95;;;;;;;17.12;87.41;102152.69;5053546;28;20052;-72
2022/07/11 07:05:23;;;;;;;3.33;1.77;;;;;;;17.11;88.02;102145.00;5055770;28;20033;-72
2022/07/11 07:07:49;;;;;;;3.83;1.90;;;;;;;17.25;88.61;102146.94;5022933;28;20722;-73
2022/07/11 07:10:14;;;;;;;3.78;1.80;;;;;;;17.28;88.17;102143.97;5059231;28;20047;-73
2022/07/11 07:12:40;;;;;;;5.80;2.35;;;;;;;17.37;87.46;102152.63;5058279;28;20032;-72
2022/07/11 07:15:06;;;;;;;6.22;2.15;;;;;;;17.38;87.64;102154.25;5056516;28;20097;-73
2022/07/11 07:17:31;;;;;;;7.80;2.30;;;;;;;17.40;87.35;102140.97;5061069;28;20063;-73
2022/07/11 07:19:57;;;;;;;2.83;1.75;;;;;;;17.42;87.03;102150.34;5022510;28;20089;-73
2022/07/11 07:22:23;;;;;;;4.25;2.53;;;;;;;17.44;86.41;102156.22;5040528;28;20083;-73
2022/07/11 07:24:48;;;;;;;4.80;2.00;;;;;;;17.38;86.29;102149.00;5055464;28;20024;-73
2022/07/11 07:27:14;;;;;;;5.07;2.10;;;;;;;17.37;86.64;102144.78;5057153;28;20435;-73
2022/07/11 07:29:39;;;;;;;13.93;3.17;;;;;;;17.44;86.25;102147.53;5038272;28;20087;-74
2022/07/11 07:32:05;;;;;;;5.72;2.63;;;;;;;17.34;86.25;102158.19;5056301;28;20036;-73
2022/07/11 07:34:32;;;;;;;8.60;2.25;;;;;;;17.31;86.12;102151.50;5056972;28;20075;-73
2022/07/11 07:36:58;;;;;;;6.13;2.30;;;;;;;17.32;86.92;102153.13;5059220;28;20032;-73
2022/07/11 07:39:24;;;;;;;4.38;1.98;;;;;;;17.38;87.11;102153.44;5061088;28;20077;-73
2022/07/11 07:41:49;;;;;;;8.38;2.63;;;;;;;17.37;87.33;102152.63;5059586;28;20035;-73
2022/07/11 07:44:15;;;;;;;8.80;1.98;;;;;;;17.34;87.64;102154.78;5059740;28;20845;-73
2022/07/11 07:46:40;;;;;;;4.10;2.33;;;;;;;17.38;87.85;102156.88;5057284;28;21720;-73
2022/07/11 07:49:06;;;;;;;4.57;2.25;;;;;;;17.40;87.74;102151.47;5041288;28;20040;-73
2022/07/11 07:51:32;;;;;;;6.68;2.17;;;;;;;17.49;87.14;102146.03;5043882;28;20051;-73
2022/07/11 07:53:57;;;;;;;6.00;1.90;;;;;;;17.61;87.16;102149.13;5038640;28;20056;-72
2022/07/11 07:56:24;;;;;;;3.50;1.95;;;;;;;17.58;87.14;102149.44;5025320;28;20066;-73
2022/07/11 07:58:51;;;;;;;6.53;2.28;;;;;;;17.50;87.58;102157.34;5065079;28;20114;-72
2022/07/11 08:01:35;;;;;;;7.50;2.30;;;;;;;17.54;87.52;102150.78;5059385;28;20113;-73
2022/07/11 08:04:05;;;;;;;6.43;2.25;;;;;;;17.65;86.97;102145.16;5056147;28;20101;-73
2022/07/11 08:06:32;;;;;;;5.28;1.90;;;;;;;17.62;85.83;102142.88;5059562;28;20056;-73
2022/07/11 08:08:58;;;;;;;5.25;1.80;;;;;;;17.59;85.15;102139.78;5055829;28;20040;-73
2022/07/11 08:11:24;;;;;;;5.68;1.50;;;;;;;17.56;85.35;102138.31;5036456;28;20054;-73
2022/07/11 08:13:50;;;;;;;5.13;1.70;;;;;;;17.57;85.65;102136.50;5048543;28;20025;-73
2022/07/11 08:16:15;;;;;;;3.58;1.50;;;;;;;17.68;85.67;102136.94;5060583;28;20063;-73
2022/07/11 08:18:41;;;;;;;5.40;1.85;;;;;;;17.84;85.64;102137.88;5065444;28;20106;-73
2022/07/11 08:21:06;;;;;;;5.93;1.40;;;;;;;17.88;84.89;102137.38;5057734;28;20090;-73
2022/07/11 08:23:32;;;;;;;5.93;1.30;;;;;;;18.03;84.44;102142.72;5063161;28;20032;-73
2022/07/11 08:25:57;;;;;;;5.63;1.38;;;;;;;18.01;84.26;102147.31;5061948;28;20038;-74
2022/07/11 08:28:23;;;;;;;3.45;1.50;;;;;;;18.00;83.58;102148.28;5041970;28;20059;-73
2022/07/11 08:30:48;;;;;;;5.65;1.45;;;;;;;18.00;83.44;102152.72;5045978;28;20563;-74
2022/07/11 08:33:14;;;;;;;6.40;1.30;;;;;;;18.05;83.54;102155.66;5037557;28;20131;-73
2022/07/11 08:35:39;;;;;;;4.28;1.40;;;;;;;18.12;83.65;102156.63;5059828;28;20040;-73
2022/07/11 08:38:05;;;;;;;3.03;1.10;;;;;;;18.08;82.68;102152.69;5061100;28;20076;-73
2022/07/11 08:40:31;;;;;;;4.28;1.33;;;;;;;18.09;82.58;102157.75;5061669;28;20036;-73
2022/07/11 08:42:57;;;;;;;5.55;1.30;;;;;;;18.20;81.59;102155.75;5061797;28;20037;-74
2022/07/11 08:45:29;;;;;;;3.10;1.27;;;;;;;18.30;81.18;102158.94;5043069;28;21556;-73
2022/07/11 08:47:56;;;;;;;3.28;1.00;;;;;;;18.45;80.29;102151.13;5051701;28;20109;-73
2022/07/11 08:50:23;;;;;;;2.58;1.00;;;;;;;18.56;80.66;102153.34;5028880;28;20115;-73
2022/07/11 08:52:48;;;;;;;4.50;1.17;;;;;;;18.70;80.87;102154.38;5040720;28;20776;-73
2022/07/11 08:55:14;;;;;;;1.67;0.85;;;;;;;18.71;80.30;102158.66;5042836;28;20039;-75
2022/07/11 08:57:39;;;;;;;2.30;1.10;;;;;;;18.66;79.62;102156.53;5047276;28;20443;-73
2022/07/11 09:00:09;;;;;;;1.98;1.20;;;;;;;18.66;79.52;102153.09;5061439;28;20036;-73
2022/07/11 09:02:35;;;;;;;1.65;1.08;;;;;;;18.66;79.58;102153.91;5063888;28;20048;-73
2022/07/11 09:05:05;;;;;;;5.57;1.63;;;;;;;18.68;79.72;102154.59;5062383;28;20127;-73
2022/07/11 09:07:32;;;;;;;1.95;1.02;;;;;;;18.78;79.73;102159.59;5062699;28;20076;-73
2022/07/11 09:09:57;;;;;;;3.60;0.88;;;;;;;18.78;79.92;102156.97;5064582;28;20167;-73
2022/07/11 09:12:23;;;;;;;2.30;0.60;;;;;;;18.78;79.39;102156.13;5060321;28;20055;-73
2022/07/11 09:14:51;;;;;;;1.67;0.70;;;;;;;18.87;78.46;102160.34;5046622;28;20047;-73
2022/07/11 09:17:26;;;;;;;2.30;0.70;;;;;;;18.79;78.06;102157.75;5045684;28;20055;-73
2022/07/11 09:19:52;;;;;;;2.55;0.80;;;;;;;18.73;78.45;102155.84;5059604;28;20610;-73
2022/07/11 09:25:19;;;;;;;4.15;0.65;;;;;;;18.97;77.04;102152.22;5039313;28;20045;-73
2022/07/11 09:28:01;;;;;;;7.85;0.80;;;;;;;19.23;76.89;102149.97;5059892;28;20036;-73
2022/07/11 09:30:26;;;;;;;1.77;0.60;;;;;;;19.37;76.04;102140.44;5059418;28;20039;-74
2022/07/11 09:32:58;;;;;;;3.10;0.50;;;;;;;19.45;75.53;102136.91;5062815;28;20048;-73
2022/07/11 09:35:28;;;;;;;2.10;0.70;;;;;;;19.74;75.45;102138.72;5041418;28;20054;-73
2022/07/11 09:37:54;;;;;;;0.65;0.47;;;;;;;19.85;75.16;102140.06;5044801;28;20130;-73
2022/07/11 09:40:21;;;;;;;3.80;0.68;;;;;;;19.86;73.84;102133.00;5056651;28;20562;-73
2022/07/11 09:42:52;;;;;;;0.80;0.50;;;;;;;19.77;73.71;102129.66;5042709;28;20634;-73
2022/07/11 09:45:23;;;;;;;4.75;0.60;;;;;;;19.66;73.48;102123.00;5057957;28;20412;-73
2022/07/11 09:47:51;;;;;;;2.47;0.68;;;;;;;19.63;73.86;102132.09;5041878;28;20066;-73
2022/07/11 09:50:26;;;;;;;2.65;0.70;;;;;;;19.72;73.84;102124.06;5058717;28;20055;-75
2022/07/11 09:53:14;;;;;;;1.27;0.65;;;;;;;19.72;73.76;102124.06;5061284;28;20140;-73
2022/07/11 09:55:48;;;;;;;1.85;0.70;;;;;;;19.62;74.74;102140.16;5041992;28;20033;-73
2022/07/11 09:58:16;;;;;;;1.10;0.75;;;;;;;19.59;75.07;102137.88;5021280;28;20424;-72
2022/07/11 10:00:42;;;;;;;2.45;0.50;;;;;;;19.50;73.84;102139.81;5043321;28;20064;-73
2022/07/11 10:03:11;;;;;;;5.55;0.63;;;;;;;19.43;74.36;102139.72;5059292;28;20127;-73
2022/07/11 10:05:36;;;;;;;2.25;0.52;;;;;;;19.33;75.01;102135.75;5059813;28;20056;-73
2022/07/11 10:08:03;;;;;;;0.63;0.20;;;;;;;19.32;75.17;102136.75;5060195;28;20167;-73
2022/07/11 10:10:30;;;;;;;2.83;0.40;;;;;;;19.34;75.01;102132.09;5056218;28;20036;-73
2022/07/11 10:12:56;;;;;;;2.30;0.50;;;;;;;19.37;74.58;102134.38;5057010;28;20062;-73
2022/07/11 10:15:32;;;;;;;11.40;0.60;;;;;;;19.40;74.73;102139.25;5059294;28;20036;-72
2022/07/11 10:18:19;;;;;;;0.77;0.52;;;;;;;19.50;73.74;102133.75;5058201;28;20538;-74
2022/07/11 10:20:59;;;;;;;3.58;0.65;;;;;;;19.44;74.13;102137.94;5060690;28;20025;-73
2022/07/11 10:23:42;;;;;;;3.65;0.60;;;;;;;19.40;74.48;102131.38;5058479;28;20032;-73
2022/07/11 10:26:14;;;;;;;1.38;0.85;;;;;;;19.47;74.08;102137.53;5039122;28;20031;-73
2022/07/11 10:28:52;;;;;;;8.82;0.70;;;;;;;19.48;74.58;102141.81;5057993;28;20063;-73
2022/07/11 10:31:25;;;;;;;2.58;0.60;;;;;;;19.68;74.32;102144.69;5060398;28;20040;-72
2022/07/11 10:34:10;;;;;;;0.65;0.50;;;;;;;19.59;74.54;102143.97;5040787;28;20107;-72
2022/07/11 10:36:41;;;;;;;1.00;0.43;;;;;;;19.48;74.88;102143.59;5062977;28;20063;-72
2022/07/11 10:39:17;;;;;;;1.25;0.50;;;;;;;19.52;74.37;102150.97;5057543;28;20128;-73
2022/07/11 10:42:06;;;;;;;1.60;0.40;;;;;;;19.52;73.88;102153.59;5044709;28;20047;-73
2022/07/11 10:44:54;;;;;;;0.90;0.30;;;;;;;19.67;73.12;102164.09;5045358;28;20102;-72
2022/07/11 10:47:43;;;;;;;0.52;0.28;;;;;;;19.63;72.35;102166.28;5042506;28;20101;-72
2022/07/11 10:50:38;;;;;;;2.20;0.60;;;;;;;19.62;72.02;102167.28;5039604;28;20468;-72
2022/07/11 10:53:20;;;;;;;1.08;0.25;;;;;;;19.68;72.34;102165.72;5040189;28;20040;-72
2022/07/11 10:55:45;;;;;;;0.88;0.47;;;;;;;19.75;72.65;102168.47;5059465;28;20028;-73
2022/07/11 10:58:22;;;;;;;1.83;0.50;;;;;;;19.75;72.04;102164.03;5060004;28;20174;-74
2022/07/11 11:01:09;;;;;;;0.43;0.28;;;;;;;19.89;72.30;102159.75;5059293;28;20056;-73
2022/07/11 11:03:34;;;;;;;3.42;0.60;;;;;;;20.05;71.39;102160.53;5058941;28;20089;-72
2022/07/11 11:06:00;;;;;;;1.98;0.70;;;;;;;20.16;71.38;102165.31;5045300;28;20040;-73
2022/07/11 11:08:32;;;;;;;0.50;0.32;;;;;;;20.28;71.08;102163.00;5038995;28;20040;-73
2022/07/11 11:10:59;;;;;;;1.13;0.40;;;;;;;20.44;71.19;102160.13;5056119;28;20036;-73
2022/07/11 11:13:26;;;;;;;3.30;0.50;;;;;;;20.65;69.67;102154.03;5059772;28;20550;-73
2022/07/11 11:15:57;;;;;;;1.83;0.50;;;;;;;20.88;69.88;102148.53;5043400;28;20033;-74
2022/07/11 11:18:23;;;;;;;2.95;0.98;;;;;;;20.89;68.01;102154.63;5057287;28;20111;-73
2022/07/11 11:21:00;;;;;;;1.23;0.50;;;;;;;20.77;68.19;102154.34;5060098;28;20115;-74
2022/07/11 11:23:32;;;;;;;0.80;0.50;;;;;;;20.80;68.81;102156.59;5059941;28;20032;-73
2022/07/11 11:26:04;;;;;;;0.52;0.50;;;;;;;20.73;68.18;102153.91;5061182;28;20032;-73
2022/07/11 11:28:30;;;;;;;0.60;0.50;;;;;;;20.49;69.00;102154.28;5042096;28;20039;-74